createdAt,value
2017-05-01T00:00:27.350Z,1035.98
2017-05-01T00:01:27.339Z,1035.93
2017-05-01T00:02:27.333Z,1035.94
2017-05-01T00:03:27.567Z,1035.88
2017-05-01T00:04:27.305Z,1035.95
2017-05-01T00:05:27.294Z,1035.96
2017-05-01T00:06:27.284Z,1035.9
2017-05-01T00:07:27.273Z,1035.9
2017-05-01T00:08:27.513Z,1035.89
2017-05-01T00:09:27.251Z,1035.89
2017-05-01T00:10:27.240Z,1035.91
2017-05-01T00:11:27.229Z,1035.86
2017-05-01T00:12:27.217Z,1035.87
2017-05-01T00:13:27.508Z,1035.8
2017-05-01T00:14:27.196Z,1035.79
2017-05-01T00:15:27.185Z,1035.84
2017-05-01T00:16:27.173Z,1035.76
2017-05-01T00:17:27.163Z,1035.79
2017-05-01T00:18:27.403Z,1035.77
2017-05-01T00:19:27.142Z,1035.8
2017-05-01T00:20:27.129Z,1035.72
2017-05-01T00:21:27.118Z,1035.69
2017-05-01T00:22:27.107Z,1035.68
2017-05-01T00:23:27.096Z,1035.76
2017-05-01T00:24:27.086Z,1035.69
2017-05-01T00:25:27.074Z,1035.7
2017-05-01T00:26:27.064Z,1035.67
2017-05-01T00:27:27.052Z,1035.67
2017-05-01T00:28:27.041Z,1035.68
2017-05-01T00:29:27.031Z,1035.67
2017-05-01T00:30:27.019Z,1035.67
2017-05-01T00:31:27.007Z,1035.64
2017-05-01T00:32:26.997Z,1035.71
2017-05-01T00:33:26.986Z,1035.7
2017-05-01T00:34:26.974Z,1035.73
2017-05-01T00:35:26.963Z,1035.79
2017-05-01T00:36:26.952Z,1035.62
2017-05-01T00:37:26.941Z,1035.64
2017-05-01T00:38:26.930Z,1035.74
2017-05-01T00:39:26.919Z,1035.66
2017-05-01T00:40:26.908Z,1035.64
2017-05-01T00:41:26.896Z,1035.63
2017-05-01T00:42:26.886Z,1035.6
2017-05-01T00:43:26.875Z,1035.64
2017-05-01T00:44:26.864Z,1035.69
2017-05-01T00:45:26.851Z,1035.61
2017-05-01T00:46:26.841Z,1035.57
2017-05-01T00:47:26.830Z,1035.61
2017-05-01T00:48:26.819Z,1035.55
2017-05-01T00:49:26.807Z,1035.6
2017-05-01T00:50:26.796Z,1035.56
2017-05-01T00:51:26.785Z,1035.62
2017-05-01T00:52:26.775Z,1035.55
2017-05-01T00:53:26.763Z,1035.57
2017-05-01T00:54:26.751Z,1035.49
2017-05-01T00:55:26.740Z,1035.59
2017-05-01T00:56:26.727Z,1035.51
2017-05-01T00:57:26.717Z,1035.57
2017-05-01T00:58:26.706Z,1035.56
2017-05-01T00:59:26.695Z,1035.54
2017-05-01T01:00:26.685Z,1035.52
2017-05-01T01:01:26.672Z,1035.54
2017-05-01T01:02:26.661Z,1035.66
2017-05-01T01:03:26.649Z,1035.52
2017-05-01T01:04:26.638Z,1035.52
2017-05-01T01:05:26.626Z,1035.53
2017-05-01T01:06:26.616Z,1035.53
2017-05-01T01:07:26.603Z,1035.51
2017-05-01T01:08:26.593Z,1035.54
2017-05-01T01:09:26.581Z,1035.54
2017-05-01T01:10:26.572Z,1035.55
2017-05-01T01:11:26.558Z,1035.5
2017-05-01T01:12:26.547Z,1035.54
2017-05-01T01:13:26.536Z,1035.52
2017-05-01T01:14:26.524Z,1035.51
2017-05-01T01:15:26.512Z,1035.51
2017-05-01T01:16:26.502Z,1035.48
2017-05-01T01:17:26.491Z,1035.5
2017-05-01T01:18:26.482Z,1035.49
2017-05-01T01:19:26.468Z,1035.45
2017-05-01T01:20:26.459Z,1035.44
2017-05-01T01:21:26.446Z,1035.44
2017-05-01T01:22:26.433Z,1035.47
2017-05-01T01:23:26.422Z,1035.4
2017-05-01T01:24:26.411Z,1035.37
2017-05-01T01:25:26.399Z,1035.44
2017-05-01T01:26:26.388Z,1035.43
2017-05-01T01:27:26.381Z,1035.44
2017-05-01T01:28:26.366Z,1035.43
2017-05-01T01:29:26.354Z,1035.43
2017-05-01T01:30:26.342Z,1035.42
2017-05-01T01:31:26.331Z,1035.45
2017-05-01T01:32:26.320Z,1035.42
2017-05-01T01:33:26.308Z,1035.44
2017-05-01T01:34:26.297Z,1035.42
2017-05-01T01:35:26.285Z,1035.39
2017-05-01T01:36:26.273Z,1035.38
2017-05-01T01:37:26.262Z,1035.38
2017-05-01T01:38:26.251Z,1035.34
2017-05-01T01:39:26.240Z,1035.34
2017-05-01T01:40:26.227Z,1035.31
2017-05-01T01:41:26.217Z,1035.37
2017-05-01T01:42:26.206Z,1035.32
2017-05-01T01:43:26.195Z,1035.29
2017-05-01T01:44:26.182Z,1035.36
2017-05-01T01:45:26.171Z,1035.34
2017-05-01T01:46:26.162Z,1035.34
2017-05-01T01:47:26.148Z,1035.36
2017-05-01T01:48:26.137Z,1035.32
2017-05-01T01:49:26.125Z,1035.36
2017-05-01T01:50:26.115Z,1035.34
2017-05-01T01:51:26.101Z,1035.38
2017-05-01T01:52:26.091Z,1035.41
2017-05-01T01:53:26.079Z,1035.33
2017-05-01T01:54:26.069Z,1035.45
2017-05-01T01:55:26.060Z,1035.32
2017-05-01T01:56:26.045Z,1035.35
2017-05-01T01:57:26.033Z,1035.33
2017-05-01T01:58:26.021Z,1035.32
2017-05-01T01:59:26.010Z,1035.3
2017-05-01T02:00:25.998Z,1035.36
2017-05-01T02:01:25.987Z,1035.31
2017-05-01T02:02:25.975Z,1035.34
2017-05-01T02:03:25.964Z,1035.36
2017-05-01T02:04:25.953Z,1035.32
2017-05-01T02:05:25.942Z,1035.31
2017-05-01T02:06:25.930Z,1035.34
2017-05-01T02:07:25.920Z,1035.34
2017-05-01T02:08:25.907Z,1035.28
2017-05-01T02:09:25.894Z,1035.34
2017-05-01T02:10:25.883Z,1035.32
2017-05-01T02:11:25.873Z,1035.27
2017-05-01T02:12:25.861Z,1035.34
2017-05-01T02:13:25.848Z,1035.27
2017-05-01T02:14:25.838Z,1035.28
2017-05-01T02:15:25.826Z,1035.3
2017-05-01T02:16:25.815Z,1035.26
2017-05-01T02:17:25.804Z,1035.32
2017-05-01T02:18:25.792Z,1035.25
2017-05-01T02:19:25.781Z,1035.24
2017-05-01T02:20:25.769Z,1035.21
2017-05-01T02:21:25.757Z,1035.25
2017-05-01T02:22:25.746Z,1035.22
2017-05-01T02:23:25.734Z,1035.27
2017-05-01T02:24:25.722Z,1035.24
2017-05-01T02:25:25.710Z,1035.23
2017-05-01T02:26:25.699Z,1035.23
2017-05-01T02:27:25.686Z,1035.21
2017-05-01T02:28:25.675Z,1035.2
2017-05-01T02:29:25.664Z,1035.22
2017-05-01T02:30:25.652Z,1035.22
2017-05-01T02:31:25.640Z,1035.2
2017-05-01T02:32:25.629Z,1035.16
2017-05-01T02:33:25.617Z,1035.16
2017-05-01T02:34:25.906Z,1035.15
2017-05-01T02:35:25.594Z,1035.11
2017-05-01T02:36:25.583Z,1035.12
2017-05-01T02:37:25.571Z,1035.11
2017-05-01T02:38:25.558Z,1035.12
2017-05-01T02:39:25.799Z,1035.09
2017-05-01T02:40:25.535Z,1035.07
2017-05-01T02:41:25.524Z,1035.09
2017-05-01T02:42:25.512Z,1035.12
2017-05-01T02:43:25.500Z,1035.05
2017-05-01T02:44:25.739Z,1035.03
2017-05-01T02:45:25.477Z,1035.06
2017-05-01T02:46:25.465Z,1035.05
2017-05-01T02:47:25.454Z,1035
2017-05-01T02:48:25.442Z,1035.01
2017-05-01T02:49:25.730Z,1035
2017-05-01T02:50:25.418Z,1035.03
2017-05-01T02:51:25.407Z,1034.98
2017-05-01T02:52:25.395Z,1034.96
2017-05-01T02:53:25.427Z,1034.94
2017-05-01T02:54:25.675Z,1034.95
2017-05-01T02:55:25.360Z,1034.95
2017-05-01T02:56:25.348Z,1034.99
2017-05-01T02:57:25.336Z,1034.94
2017-05-01T02:58:25.324Z,1034.95
2017-05-01T02:59:25.563Z,1034.94
2017-05-01T03:00:25.300Z,1034.86
2017-05-01T03:01:25.289Z,1034.89
2017-05-01T03:02:25.278Z,1034.96
2017-05-01T03:03:25.265Z,1034.82
2017-05-01T03:04:25.554Z,1034.85
2017-05-01T03:05:25.241Z,1034.84
2017-05-01T03:06:25.230Z,1034.79
2017-05-01T03:07:25.218Z,1034.8
2017-05-01T03:08:25.205Z,1034.78
2017-05-01T03:09:25.445Z,1034.88
2017-05-01T03:10:25.183Z,1034.81
2017-05-01T03:11:25.170Z,1034.87
2017-05-01T03:12:25.159Z,1034.8
2017-05-01T03:13:25.147Z,1034.85
2017-05-01T03:14:25.436Z,1034.81
2017-05-01T03:15:25.122Z,1034.84
2017-05-01T03:16:25.111Z,1034.87
2017-05-01T03:17:25.099Z,1034.83
2017-05-01T03:18:25.088Z,1034.82
2017-05-01T03:19:25.076Z,1034.81
2017-05-01T03:20:25.065Z,1034.8
2017-05-01T03:21:25.052Z,1034.81
2017-05-01T03:22:25.039Z,1034.82
2017-05-01T03:23:25.027Z,1034.84
2017-05-01T03:24:25.016Z,1034.71
2017-05-01T03:25:25.004Z,1034.75
2017-05-01T03:26:24.991Z,1034.76
2017-05-01T03:27:24.982Z,1034.72
2017-05-01T03:28:24.971Z,1034.69
2017-05-01T03:29:24.957Z,1034.71
2017-05-01T03:30:24.944Z,1034.67
2017-05-01T03:31:24.933Z,1034.67
2017-05-01T03:32:24.921Z,1034.62
2017-05-01T03:33:24.910Z,1034.61
2017-05-01T03:34:24.896Z,1034.56
2017-05-01T03:35:24.885Z,1034.59
2017-05-01T03:36:24.873Z,1034.57
2017-05-01T03:37:24.861Z,1034.53
2017-05-01T03:38:24.849Z,1034.56
2017-05-01T03:39:24.838Z,1034.58
2017-05-01T03:40:24.826Z,1034.53
2017-05-01T03:41:24.813Z,1034.53
2017-05-01T03:42:24.802Z,1034.53
2017-05-01T03:43:24.791Z,1034.44
2017-05-01T03:44:24.778Z,1034.46
2017-05-01T03:45:24.766Z,1034.47
2017-05-01T03:46:24.754Z,1034.45
2017-05-01T03:47:24.742Z,1034.46
2017-05-01T03:48:24.729Z,1034.39
2017-05-01T03:49:24.718Z,1034.39
2017-05-01T03:50:24.707Z,1034.4
2017-05-01T03:51:24.695Z,1034.31
2017-05-01T03:52:24.683Z,1034.32
2017-05-01T03:53:24.672Z,1034.31
2017-05-01T03:54:24.660Z,1034.24
2017-05-01T03:55:24.648Z,1034.23
2017-05-01T03:56:24.636Z,1034.18
2017-05-01T03:57:24.625Z,1034.27
2017-05-01T03:58:24.613Z,1034.15
2017-05-01T03:59:24.601Z,1034.13
2017-05-01T04:00:24.589Z,1034.16
2017-05-01T04:01:24.578Z,1034.14
2017-05-01T04:02:24.564Z,1034.11
2017-05-01T04:03:24.554Z,1034.08
2017-05-01T04:04:24.542Z,1033.99
2017-05-01T04:05:24.531Z,1034.03
2017-05-01T04:06:24.518Z,1033.87
2017-05-01T04:07:24.508Z,1033.76
2017-05-01T04:08:24.498Z,1033.78
2017-05-01T04:09:24.484Z,1033.74
2017-05-01T04:10:24.472Z,1033.62
2017-05-01T04:11:24.461Z,1033.64
2017-05-01T04:12:24.449Z,1033.55
2017-05-01T04:13:24.438Z,1033.48
2017-05-01T04:14:24.426Z,1033.34
2017-05-01T04:15:24.415Z,1033.2
2017-05-01T04:16:24.404Z,1033.03
2017-05-01T04:17:24.392Z,1032.83
2017-05-01T04:18:24.381Z,1032.67
2017-05-01T04:19:24.371Z,1032.49
2017-05-01T04:20:24.359Z,1032.48
2017-05-01T04:21:24.348Z,1032.32
2017-05-01T04:22:24.337Z,1032.25
2017-05-01T04:23:24.327Z,1032.02
2017-05-01T04:24:24.315Z,1031.85
2017-05-01T04:25:24.305Z,1031.82
2017-05-01T04:26:24.295Z,1031.83
2017-05-01T04:27:24.286Z,1031.75
2017-05-01T04:28:24.276Z,1031.78
2017-05-01T04:29:24.266Z,1031.96
2017-05-01T04:30:24.260Z,1032.11
2017-05-01T04:31:24.247Z,1032.33
2017-05-01T04:32:24.236Z,1032.43
2017-05-01T04:33:24.231Z,1032.53
2017-05-01T04:34:24.218Z,1032.66
2017-05-01T04:35:24.207Z,1032.72
2017-05-01T04:36:24.197Z,1032.84
2017-05-01T04:37:24.188Z,1032.91
2017-05-01T04:38:24.179Z,1032.96
2017-05-01T04:39:24.168Z,1033.01
2017-05-01T04:40:24.159Z,1033.03
2017-05-01T04:41:24.149Z,1033.06
2017-05-01T04:42:24.140Z,1033.08
2017-05-01T04:43:24.129Z,1033.16
2017-05-01T04:44:24.120Z,1033.12
2017-05-01T04:45:24.110Z,1033.1
2017-05-01T04:46:24.099Z,1033.09
2017-05-01T04:47:24.089Z,1033.11
2017-05-01T04:48:24.079Z,1033.17
2017-05-01T04:49:24.070Z,1033.1
2017-05-01T04:50:24.061Z,1032.97
2017-05-01T04:51:24.049Z,1033.03
2017-05-01T04:52:24.040Z,1033.01
2017-05-01T04:53:24.030Z,1033.05
2017-05-01T04:54:24.020Z,1033.07
2017-05-01T04:55:24.009Z,1033.11
2017-05-01T04:56:23.999Z,1033.06
2017-05-01T04:57:23.989Z,1033.15
2017-05-01T04:58:23.979Z,1033.11
2017-05-01T04:59:23.970Z,1033.11
2017-05-01T05:00:23.959Z,1033.09
2017-05-01T05:01:23.949Z,1033.13
2017-05-01T05:02:23.938Z,1033.07
2017-05-01T05:03:23.928Z,1032.98
2017-05-01T05:04:23.919Z,1032.83
2017-05-01T05:05:23.908Z,1032.74
2017-05-01T05:06:23.898Z,1032.68
2017-05-01T05:07:23.888Z,1032.6
2017-05-01T05:08:23.877Z,1032.54
2017-05-01T05:09:23.868Z,1032.5
2017-05-01T05:10:23.857Z,1032.41
2017-05-01T05:11:23.848Z,1032.3
2017-05-01T05:12:23.837Z,1032.42
2017-05-01T05:13:23.827Z,1032.36
2017-05-01T05:14:23.819Z,1032.4
2017-05-01T05:15:23.807Z,1032.31
2017-05-01T05:16:23.797Z,1032.34
2017-05-01T05:17:23.787Z,1032.25
2017-05-01T05:18:23.778Z,1032.24
2017-05-01T05:19:23.767Z,1032.17
2017-05-01T05:20:23.757Z,1032.11
2017-05-01T05:21:23.748Z,1032.05
2017-05-01T05:22:23.741Z,1031.97
2017-05-01T05:23:23.729Z,1031.93
2017-05-01T05:24:23.719Z,1031.99
2017-05-01T05:25:23.710Z,1031.92
2017-05-01T05:26:23.700Z,1031.95
2017-05-01T05:27:23.691Z,1031.98
2017-05-01T05:28:23.682Z,1031.93
2017-05-01T05:29:23.675Z,1032.02
2017-05-01T05:30:23.664Z,1032.07
2017-05-01T05:31:23.654Z,1032.18
2017-05-01T05:32:23.645Z,1032.32
2017-05-01T05:33:23.636Z,1032.33
2017-05-01T05:34:23.626Z,1032.39
2017-05-01T05:35:23.617Z,1032.34
2017-05-01T05:36:23.607Z,1032.39
2017-05-01T05:37:23.598Z,1032.26
2017-05-01T05:38:23.588Z,1032.27
2017-05-01T05:39:23.580Z,1032.17
2017-05-01T05:40:23.571Z,1032.09
2017-05-01T05:41:23.560Z,1032.06
2017-05-01T05:42:23.553Z,1032.08
2017-05-01T05:43:23.543Z,1032.09
2017-05-01T05:44:23.534Z,1032.09
2017-05-01T05:45:23.524Z,1032.07
2017-05-01T05:46:23.515Z,1032
2017-05-01T05:47:23.506Z,1031.98
2017-05-01T05:48:23.496Z,1031.85
2017-05-01T05:49:23.487Z,1031.82
2017-05-01T05:50:23.478Z,1031.77
2017-05-01T05:51:23.469Z,1031.76
2017-05-01T05:52:23.459Z,1031.67
2017-05-01T05:53:23.451Z,1031.64
2017-05-01T05:54:23.443Z,1031.67
2017-05-01T05:55:23.733Z,1031.67
2017-05-01T05:56:23.424Z,1031.63
2017-05-01T05:57:23.415Z,1031.51
2017-05-01T05:58:23.407Z,1031.41
2017-05-01T05:59:23.397Z,1031.47
2017-05-01T06:00:23.638Z,1031.34
2017-05-01T06:01:23.380Z,1031.29
2017-05-01T06:02:23.371Z,1031.21
2017-05-01T06:03:23.363Z,1031.16
2017-05-01T06:04:23.357Z,1031.16
2017-05-01T06:05:23.645Z,1031.12
2017-05-01T06:06:23.337Z,1031.09
2017-05-01T06:07:23.328Z,1031.01
2017-05-01T06:08:23.320Z,1030.98
2017-05-01T06:09:23.312Z,1030.96
2017-05-01T06:10:23.553Z,1030.92
2017-05-01T06:11:23.298Z,1030.77
2017-05-01T06:12:23.286Z,1030.77
2017-05-01T06:13:23.278Z,1030.71
2017-05-01T06:14:23.270Z,1030.61
2017-05-01T06:15:23.612Z,1030.58
2017-05-01T06:16:23.254Z,1030.57
2017-05-01T06:17:23.246Z,1030.6
2017-05-01T06:18:23.238Z,1030.48
2017-05-01T06:19:23.230Z,1030.54
2017-05-01T06:20:23.472Z,1030.42
2017-05-01T06:21:23.214Z,1030.48
2017-05-01T06:22:23.206Z,1030.48
2017-05-01T06:23:23.200Z,1030.45
2017-05-01T06:24:23.192Z,1030.42
2017-05-01T06:25:23.484Z,1030.33
2017-05-01T06:26:23.176Z,1030.38
2017-05-01T06:27:23.169Z,1030.29
2017-05-01T06:28:23.161Z,1030.32
2017-05-01T06:29:23.153Z,1030.3
2017-05-01T06:30:23.397Z,1030.27
2017-05-01T06:31:23.139Z,1030.17
2017-05-01T06:32:23.131Z,1030.15
2017-05-01T06:33:23.124Z,1030.11
2017-05-01T06:34:23.118Z,1030.09
2017-05-01T06:35:23.111Z,1030.07
2017-05-01T06:36:23.103Z,1030.02
2017-05-01T06:37:23.096Z,1029.92
2017-05-01T06:38:23.091Z,1030.11
2017-05-01T06:39:23.083Z,1029.88
2017-05-01T06:40:23.076Z,1029.89
2017-05-01T06:41:23.070Z,1029.97
2017-05-01T06:42:23.063Z,1029.89
2017-05-01T06:43:23.056Z,1029.99
2017-05-01T06:44:23.049Z,1029.89
2017-05-01T06:45:23.042Z,1029.87
2017-05-01T06:46:23.036Z,1029.73
2017-05-01T06:47:23.029Z,1029.82
2017-05-01T06:48:23.024Z,1029.79
2017-05-01T06:49:23.018Z,1029.85
2017-05-01T06:50:23.011Z,1029.78
2017-05-01T06:51:23.004Z,1029.82
2017-05-01T06:52:22.997Z,1029.85
2017-05-01T06:53:22.993Z,1029.82
2017-05-01T06:54:22.985Z,1029.75
2017-05-01T06:55:22.979Z,1029.86
2017-05-01T06:56:22.974Z,1029.88
2017-05-01T06:57:22.967Z,1029.78
2017-05-01T06:58:22.961Z,1029.76
2017-05-01T06:59:22.955Z,1029.86
2017-05-01T07:00:22.949Z,1029.71
2017-05-01T07:01:22.943Z,1029.67
2017-05-01T07:02:22.939Z,1029.63
2017-05-01T07:03:22.932Z,1029.61
2017-05-01T07:04:22.926Z,1029.59
2017-05-01T07:05:22.919Z,1029.5
2017-05-01T07:06:22.913Z,1029.54
2017-05-01T07:07:22.908Z,1029.54
2017-05-01T07:08:22.902Z,1029.48
2017-05-01T07:09:22.895Z,1029.46
2017-05-01T07:10:22.890Z,1029.24
2017-05-01T07:11:22.884Z,1029.31
2017-05-01T07:12:22.879Z,1029.31
2017-05-01T07:13:22.875Z,1029.31
2017-05-01T07:14:22.868Z,1029.29
2017-05-01T07:15:22.862Z,1029.31
2017-05-01T07:16:22.856Z,1029.32
2017-05-01T07:17:22.851Z,1029.28
2017-05-01T07:18:22.846Z,1029.2
2017-05-01T07:19:22.841Z,1029.11
2017-05-01T07:20:22.835Z,1029.03
2017-05-01T07:21:22.829Z,1029.08
2017-05-01T07:22:22.824Z,1028.79
2017-05-01T07:23:22.818Z,1028.85
2017-05-01T07:24:22.814Z,1028.51
2017-05-01T07:25:22.809Z,1028.43
2017-05-01T07:26:22.804Z,1027.8
2017-05-01T07:27:22.799Z,1027.71
2017-05-01T07:28:22.794Z,1027.32
2017-05-01T07:29:22.791Z,1027.03
2017-05-01T07:30:22.786Z,1027.11
2017-05-01T07:31:22.781Z,1027.22
2017-05-01T07:32:22.777Z,1027.2
2017-05-01T07:33:22.774Z,1027.04
2017-05-01T07:34:22.769Z,1026.55
2017-05-01T07:35:22.766Z,1026.59
2017-05-01T07:36:22.763Z,1027
2017-05-01T07:37:22.760Z,1026.37
2017-05-01T07:38:22.758Z,1026.37
2017-05-01T07:39:22.754Z,1025.22
2017-05-01T07:40:22.751Z,1025.24
2017-05-01T07:41:22.750Z,1025.05
2017-05-01T07:42:22.747Z,1025.06
2017-05-01T07:43:22.747Z,1024.29
2017-05-01T07:44:22.747Z,1024.61
2017-05-01T07:45:22.745Z,1025.51
2017-05-01T07:46:22.745Z,1026.16
2017-05-01T07:47:22.745Z,1025.23
2017-05-01T07:48:22.745Z,1025.86
2017-05-01T07:49:22.746Z,1026.33
2017-05-01T07:50:22.746Z,1026.2
2017-05-01T07:51:22.746Z,1025.56
2017-05-01T07:52:22.747Z,1026.09
2017-05-01T07:53:22.746Z,1026.29
2017-05-01T07:54:22.747Z,1026.87
2017-05-01T07:55:22.751Z,1026.57
2017-05-01T07:56:22.747Z,1025.74
2017-05-01T07:57:22.748Z,1026.06
2017-05-01T07:58:22.749Z,1025.29
2017-05-01T07:59:22.750Z,1025.66
2017-05-01T08:00:22.750Z,1026
2017-05-01T08:01:22.751Z,1026.31
2017-05-01T08:02:22.756Z,1025.79
2017-05-01T08:03:22.753Z,1024.75
2017-05-01T08:04:22.752Z,1025.18
2017-05-01T08:05:22.753Z,1025.59
2017-05-01T08:06:22.754Z,1025.78
2017-05-01T08:07:22.755Z,1025.24
2017-05-01T08:08:22.755Z,1025.73
2017-05-01T08:09:22.756Z,1026.03
2017-05-01T08:10:22.757Z,1026.38
2017-05-01T08:11:22.757Z,1026.41
2017-05-01T08:12:22.758Z,1026.48
2017-05-01T08:13:22.758Z,1026.43
2017-05-01T08:14:22.757Z,1026.1
2017-05-01T08:15:22.758Z,1026.25
2017-05-01T08:16:22.760Z,1026.39
2017-05-01T08:17:22.759Z,1026.51
2017-05-01T08:18:22.759Z,1026.55
2017-05-01T08:19:22.759Z,1026.55
2017-05-01T08:20:22.759Z,1026.64
2017-05-01T08:21:22.759Z,1027.01
2017-05-01T08:22:22.759Z,1026.99
2017-05-01T08:23:22.758Z,1027.07
2017-05-01T08:24:22.759Z,1027.05
2017-05-01T08:25:22.757Z,1027.16
2017-05-01T08:26:22.756Z,1027.27
2017-05-01T08:27:22.757Z,1027.2
2017-05-01T08:28:22.757Z,1027.15
2017-05-01T08:29:22.760Z,1027.12
2017-05-01T08:30:22.755Z,1027.16
2017-05-01T08:31:22.754Z,1027.35
2017-05-01T08:32:22.753Z,1027.37
2017-05-01T08:33:22.752Z,1027.3
2017-05-01T08:34:22.752Z,1027.53
2017-05-01T08:35:22.750Z,1027.37
2017-05-01T08:36:22.750Z,1027.42
2017-05-01T08:37:22.749Z,1027.35
2017-05-01T08:38:22.748Z,1027.25
2017-05-01T08:39:22.748Z,1027.22
2017-05-01T08:40:22.746Z,1027.05
2017-05-01T08:41:22.745Z,1027.07
2017-05-01T08:42:22.744Z,1026.92
2017-05-01T08:43:22.743Z,1026.97
2017-05-01T08:44:22.740Z,1027.08
2017-05-01T08:45:22.740Z,1026.93
2017-05-01T08:46:22.739Z,1027.05
2017-05-01T08:47:22.737Z,1027.01
2017-05-01T08:48:22.737Z,1026.93
2017-05-01T08:49:22.736Z,1027.11
2017-05-01T08:50:22.735Z,1027.05
2017-05-01T08:51:22.733Z,1027.07
2017-05-01T08:52:22.731Z,1027
2017-05-01T08:53:22.732Z,1026.98
2017-05-01T08:54:22.731Z,1026.9
2017-05-01T08:55:22.729Z,1026.99
2017-05-01T08:56:22.728Z,1026.85
2017-05-01T08:57:22.727Z,1026.76
2017-05-01T08:58:22.726Z,1026.8
2017-05-01T08:59:22.725Z,1026.62
2017-05-01T09:00:22.727Z,1026.67
2017-05-01T09:01:22.723Z,1026.68
2017-05-01T09:02:22.721Z,1026.77
2017-05-01T09:03:22.720Z,1026.8
2017-05-01T09:04:22.720Z,1026.74
2017-05-01T09:05:22.720Z,1026.72
2017-05-01T09:06:23.068Z,1026.58
2017-05-01T09:07:22.717Z,1026.57
2017-05-01T09:08:22.720Z,1026.72
2017-05-01T09:09:22.715Z,1026.68
2017-05-01T09:10:22.714Z,1026.67
2017-05-01T09:11:22.965Z,1026.78
2017-05-01T09:12:22.712Z,1026.71
2017-05-01T09:13:22.712Z,1026.75
2017-05-01T09:14:22.711Z,1026.83
2017-05-01T09:15:22.710Z,1026.78
2017-05-01T09:16:22.959Z,1026.79
2017-05-01T09:17:22.707Z,1026.76
2017-05-01T09:18:22.708Z,1026.74
2017-05-01T09:19:22.707Z,1026.86
2017-05-01T09:20:22.705Z,1026.82
2017-05-01T09:21:23.004Z,1027.12
2017-05-01T09:22:22.703Z,1027.34
2017-05-01T09:23:22.704Z,1027.46
2017-05-01T09:24:22.701Z,1027.61
2017-05-01T09:25:22.700Z,1027.81
2017-05-01T09:26:22.950Z,1028.04
2017-05-01T09:27:22.699Z,1028.14
2017-05-01T09:28:22.696Z,1028.2
2017-05-01T09:29:22.694Z,1028.37
2017-05-01T09:30:22.693Z,1028.52
2017-05-01T09:31:22.941Z,1028.6
2017-05-01T09:32:22.689Z,1028.74
2017-05-01T09:33:22.687Z,1028.7
2017-05-01T09:34:22.686Z,1028.85
2017-05-01T09:35:22.683Z,1028.76
2017-05-01T09:36:22.930Z,1028.74
2017-05-01T09:37:22.678Z,1028.84
2017-05-01T09:38:22.675Z,1028.8
2017-05-01T09:39:22.672Z,1028.73
2017-05-01T09:40:22.669Z,1028.78
2017-05-01T09:41:22.967Z,1028.83
2017-05-01T09:42:22.663Z,1028.81
2017-05-01T09:43:22.660Z,1028.87
2017-05-01T09:44:22.659Z,1028.76
2017-05-01T09:45:22.654Z,1028.6
2017-05-01T09:46:22.951Z,1028.75
2017-05-01T09:47:22.648Z,1028.76
2017-05-01T09:48:22.645Z,1028.82
2017-05-01T09:49:22.642Z,1028.89
2017-05-01T09:50:22.638Z,1028.91
2017-05-01T09:51:22.936Z,1028.78
2017-05-01T09:52:22.632Z,1028.86
2017-05-01T09:53:22.629Z,1028.71
2017-05-01T09:54:22.627Z,1028.75
2017-05-01T09:55:22.623Z,1028.7
2017-05-01T09:56:22.869Z,1028.51
2017-05-01T09:57:22.616Z,1028.75
2017-05-01T09:58:22.612Z,1028.76
2017-05-01T09:59:22.608Z,1028.84
2017-05-01T10:00:22.605Z,1028.76
2017-05-01T10:01:22.850Z,1028.82
2017-05-01T10:02:22.598Z,1028.82
2017-05-01T10:03:22.594Z,1028.86
2017-05-01T10:04:22.590Z,1028.81
2017-05-01T10:05:22.589Z,1028.77
2017-05-01T10:06:22.884Z,1028.81
2017-05-01T10:07:22.581Z,1028.78
2017-05-01T10:08:22.576Z,1028.93
2017-05-01T10:09:22.573Z,1028.86
2017-05-01T10:10:22.569Z,1028.7
2017-05-01T10:11:22.918Z,1028.81
2017-05-01T10:12:22.563Z,1028.74
2017-05-01T10:13:22.560Z,1028.66
2017-05-01T10:14:22.557Z,1028.83
2017-05-01T10:15:22.552Z,1028.7
2017-05-01T10:16:22.799Z,1028.67
2017-05-01T10:17:22.545Z,1028.77
2017-05-01T10:18:22.542Z,1028.87
2017-05-01T10:19:22.538Z,1028.73
2017-05-01T10:20:22.535Z,1028.75
2017-05-01T10:21:22.832Z,1028.86
2017-05-01T10:22:22.528Z,1028.7
2017-05-01T10:23:22.524Z,1028.65
2017-05-01T10:24:22.521Z,1028.66
2017-05-01T10:25:22.517Z,1028.74
2017-05-01T10:26:22.764Z,1028.66
2017-05-01T10:27:22.510Z,1028.68
2017-05-01T10:28:22.508Z,1028.59
2017-05-01T10:29:22.503Z,1028.72
2017-05-01T10:30:22.499Z,1029.02
2017-05-01T10:31:22.795Z,1028.66
2017-05-01T10:32:22.492Z,1028.76
2017-05-01T10:33:22.489Z,1028.69
2017-05-01T10:34:22.485Z,1028.54
2017-05-01T10:35:22.482Z,1028.76
2017-05-01T10:36:22.728Z,1028.79
2017-05-01T10:37:22.474Z,1028.66
2017-05-01T10:38:22.471Z,1028.66
2017-05-01T10:39:22.471Z,1028.69
2017-05-01T10:40:22.464Z,1028.57
2017-05-01T10:41:22.711Z,1028.5
2017-05-01T10:42:22.457Z,1028.46
2017-05-01T10:43:22.454Z,1028.51
2017-05-01T10:44:22.450Z,1028.41
2017-05-01T10:45:22.448Z,1028.49
2017-05-01T10:46:22.743Z,1028.59
2017-05-01T10:47:22.440Z,1028.49
2017-05-01T10:48:22.436Z,1028.59
2017-05-01T10:49:22.433Z,1028.43
2017-05-01T10:50:22.429Z,1028.38
2017-05-01T10:51:22.677Z,1028.34
2017-05-01T10:52:22.423Z,1028.24
2017-05-01T10:53:22.420Z,1028.36
2017-05-01T10:54:22.416Z,1028.38
2017-05-01T10:55:22.411Z,1028.42
2017-05-01T10:56:22.784Z,1028.32
2017-05-01T10:57:22.406Z,1028.24
2017-05-01T10:58:22.403Z,1028.11
2017-05-01T10:59:22.402Z,1028.28
2017-05-01T11:00:22.396Z,1028.18
2017-05-01T11:01:22.695Z,1028.3
2017-05-01T11:02:22.390Z,1028.35
2017-05-01T11:03:22.386Z,1028.15
2017-05-01T11:04:22.383Z,1028.03
2017-05-01T11:05:22.379Z,1027.7
2017-05-01T11:06:22.726Z,1027.56
2017-05-01T11:07:22.379Z,1027.39
2017-05-01T11:08:22.370Z,1027.46
2017-05-01T11:09:22.368Z,1027.28
2017-05-01T11:10:22.364Z,1027.11
2017-05-01T11:11:22.662Z,1027.05
2017-05-01T11:12:22.358Z,1026.9
2017-05-01T11:13:22.357Z,1026.87
2017-05-01T11:14:22.353Z,1026.84
2017-05-01T11:15:22.350Z,1027
2017-05-01T11:16:22.649Z,1027.24
2017-05-01T11:17:22.346Z,1027.38
2017-05-01T11:18:22.343Z,1027.64
2017-05-01T11:19:22.341Z,1027.54
2017-05-01T11:20:22.338Z,1027.57
2017-05-01T11:21:22.585Z,1027.69
2017-05-01T11:22:22.333Z,1027.52
2017-05-01T11:23:22.332Z,1027.42
2017-05-01T11:24:22.329Z,1027.42
2017-05-01T11:25:22.326Z,1027.55
2017-05-01T11:26:22.574Z,1027.46
2017-05-01T11:27:22.322Z,1027.4
2017-05-01T11:28:22.319Z,1027.25
2017-05-01T11:29:22.317Z,1027.34
2017-05-01T11:30:22.314Z,1027.14
2017-05-01T11:31:22.563Z,1027.15
2017-05-01T11:32:22.310Z,1027.03
2017-05-01T11:33:22.308Z,1026.94
2017-05-01T11:34:22.310Z,1026.95
2017-05-01T11:35:22.304Z,1026.8
2017-05-01T11:36:22.552Z,1026.67
2017-05-01T11:37:22.300Z,1026.5
2017-05-01T11:38:22.298Z,1026.33
2017-05-01T11:39:22.296Z,1026.55
2017-05-01T11:40:22.293Z,1026.53
2017-05-01T11:41:22.593Z,1026.71
2017-05-01T11:42:22.291Z,1026.56
2017-05-01T11:43:22.288Z,1026.35
2017-05-01T11:44:22.286Z,1026.55
2017-05-01T11:45:22.285Z,1026.5
2017-05-01T11:46:22.585Z,1026.6
2017-05-01T11:47:22.282Z,1026.52
2017-05-01T11:48:22.280Z,1026.45
2017-05-01T11:49:22.279Z,1026.6
2017-05-01T11:50:22.279Z,1026.37
2017-05-01T11:51:22.576Z,1026.18
2017-05-01T11:52:22.275Z,1026.23
2017-05-01T11:53:22.274Z,1026.21
2017-05-01T11:54:22.273Z,1026.21
2017-05-01T11:55:22.270Z,1026.22
2017-05-01T11:56:22.519Z,1026.1
2017-05-01T11:57:22.268Z,1026.19
2017-05-01T11:58:22.266Z,1026.14
2017-05-01T11:59:22.264Z,1026.09
2017-05-01T12:00:22.264Z,1026.06
2017-05-01T12:01:22.512Z,1026.06
2017-05-01T12:02:22.262Z,1026.04
2017-05-01T12:03:22.261Z,1026.09
2017-05-01T12:04:22.259Z,1026.1
2017-05-01T12:05:22.258Z,1026.11
2017-05-01T12:06:22.557Z,1026.02
2017-05-01T12:07:22.256Z,1025.98
2017-05-01T12:08:22.254Z,1025.97